createdAt,value
2022-10-24T00:00:21.066Z,16.29
2022-10-24T00:01:22.284Z,16.33
2022-10-24T00:02:22.487Z,16.38
2022-10-24T00:03:21.829Z,16.33
2022-10-24T00:04:22.165Z,16.33
2022-10-24T00:05:22.461Z,16.32
2022-10-24T00:06:22.896Z,16.41
2022-10-24T00:07:24.047Z,16.28
2022-10-24T00:08:23.331Z,16.39
2022-10-24T00:09:23.661Z,16.42
2022-10-24T00:10:23.980Z,16.38
2022-10-24T00:11:26.785Z,16.33
2022-10-24T00:12:24.571Z,16.36
2022-10-24T00:13:26.758Z,16.38
2022-10-24T00:14:26.936Z,16.38
2022-10-24T00:15:27.092Z,16.32
2022-10-24T00:16:28.233Z,16.43
2022-10-24T00:17:26.012Z,16.41
2022-10-24T00:18:28.189Z,16.39
2022-10-24T00:19:28.382Z,16.38
2022-10-24T00:20:28.660Z,16.36
2022-10-24T00:21:28.831Z,16.36
2022-10-24T00:22:29.471Z,16.33
2022-10-24T00:23:29.660Z,16.33
2022-10-24T00:24:28.066Z,16.29
2022-10-24T00:25:28.397Z,16.28
2022-10-24T00:26:29.668Z,16.24
2022-10-24T00:27:30.943Z,16.31
2022-10-24T00:28:29.349Z,16.29
2022-10-24T00:29:31.537Z,16.29
2022-10-24T00:30:29.933Z,16.26
2022-10-24T00:31:33.080Z,16.32
2022-10-24T00:32:32.321Z,16.32
2022-10-24T00:33:30.850Z,16.35
2022-10-24T00:34:33.030Z,16.35
2022-10-24T00:35:31.435Z,16.31
2022-10-24T00:36:35.117Z,16.33
2022-10-24T00:37:32.046Z,16.29
2022-10-24T00:38:34.233Z,16.29
2022-10-24T00:39:34.416Z,16.26
2022-10-24T00:40:32.941Z,16.24
2022-10-24T00:41:34.312Z,16.24
2022-10-24T00:42:35.547Z,16.33
2022-10-24T00:43:33.825Z,16.33
2022-10-24T00:44:34.159Z,16.46
2022-10-24T00:46:37.490Z,16.32
2022-10-24T00:47:36.706Z,16.29
2022-10-24T00:48:36.858Z,16.36
2022-10-24T00:49:37.556Z,16.36
2022-10-24T00:50:37.740Z,16.32
2022-10-24T00:51:38.887Z,16.32
2022-10-24T00:52:39.101Z,16.26
2022-10-24T00:53:38.839Z,16.21
2022-10-24T00:54:39.026Z,16.21
2022-10-24T00:55:39.212Z,16.26
2022-10-24T00:56:39.412Z,16.17
2022-10-24T00:57:40.106Z,16.20
2022-10-24T00:58:40.288Z,16.13
2022-10-24T00:59:40.478Z,16.15
2022-10-24T01:00:40.697Z,16.16
2022-10-24T01:01:40.895Z,16.08
2022-10-24T01:02:41.621Z,16.08
2022-10-24T01:03:41.688Z,16.08
2022-10-24T01:04:41.878Z,16.09
2022-10-24T01:05:42.070Z,16.09
2022-10-24T01:06:40.840Z,16.10
2022-10-24T01:07:41.173Z,16.12
2022-10-24T01:08:41.473Z,16.10
2022-10-24T01:09:41.801Z,16.12
2022-10-24T01:10:43.973Z,16.09
2022-10-24T01:11:42.381Z,16.08
2022-10-24T01:12:42.926Z,16.13
2022-10-24T01:13:44.892Z,16.05
2022-10-24T01:14:43.288Z,16.01
2022-10-24T01:15:43.625Z,16.09
2022-10-24T01:16:43.946Z,16.02
2022-10-24T01:17:46.107Z,15.98
2022-10-24T01:18:46.361Z,15.98
2022-10-24T01:19:45.035Z,16.01
2022-10-24T01:20:47.024Z,16.09
2022-10-24T01:21:47.215Z,16.04
2022-10-24T01:22:47.597Z,16.02
2022-10-24T01:23:48.075Z,16.01
2022-10-24T01:24:46.332Z,16.05
2022-10-24T01:25:47.504Z,16.08
2022-10-24T01:26:46.892Z,16.09
2022-10-24T01:27:49.044Z,16.09
2022-10-24T01:28:49.231Z,16.08
2022-10-24T01:29:47.765Z,16.12
2022-10-24T01:30:48.096Z,16.16
2022-10-24T01:31:50.343Z,16.17
2022-10-24T01:32:50.462Z,16.17
2022-10-24T01:33:48.984Z,16.24
2022-10-24T01:34:51.161Z,16.21
2022-10-24T01:35:49.567Z,16.21
2022-10-24T01:36:50.858Z,16.21
2022-10-24T01:37:50.120Z,16.29
2022-10-24T01:38:51.391Z,16.26
2022-10-24T01:39:52.627Z,16.28
2022-10-24T01:40:51.983Z,16.31
2022-10-24T01:41:52.163Z,16.29
2022-10-24T01:42:54.970Z,16.26
2022-10-24T01:44:52.159Z,16.28
2022-10-24T01:45:54.343Z,16.33
2022-10-24T01:46:53.730Z,16.31
2022-10-24T01:47:53.000Z,16.20
2022-10-24T01:48:53.333Z,16.23
2022-10-24T01:49:53.660Z,16.23
2022-10-24T01:50:54.961Z,16.28
2022-10-24T01:51:55.190Z,16.29
2022-10-24T01:52:56.429Z,16.33
2022-10-24T01:53:54.828Z,16.35
2022-10-24T01:54:57.021Z,16.28
2022-10-24T01:55:57.166Z,16.21
2022-10-24T01:56:56.672Z,16.24
2022-10-24T01:57:57.899Z,16.16
2022-10-24T01:58:56.173Z,16.12
2022-10-24T01:59:56.497Z,16.17
2022-10-24T02:00:58.760Z,16.24
2022-10-24T02:01:59.819Z,16.28
2022-10-24T02:02:59.051Z,16.38
2022-10-24T02:03:59.732Z,16.29
2022-10-24T02:04:59.893Z,16.31
2022-10-24T02:06:00.086Z,16.32
2022-10-24T02:07:01.253Z,16.29
2022-10-24T02:08:00.954Z,16.26
2022-10-24T02:09:01.156Z,16.26
2022-10-24T02:10:01.282Z,16.23
2022-10-24T02:11:02.963Z,16.24
2022-10-24T02:12:03.616Z,16.31
2022-10-24T02:13:00.546Z,16.29
2022-10-24T02:14:02.731Z,16.28
2022-10-24T02:15:02.916Z,16.31
2022-10-24T02:16:03.101Z,16.26
2022-10-24T02:17:02.727Z,16.17
2022-10-24T02:18:01.988Z,16.23
2022-10-24T02:19:02.344Z,16.21
2022-10-24T02:20:04.509Z,16.20
2022-10-24T02:21:04.690Z,16.23
2022-10-24T02:22:05.895Z,16.24
2022-10-24T02:23:05.148Z,16.21
2022-10-24T02:24:05.822Z,16.28
2022-10-24T02:25:06.013Z,16.24
2022-10-24T02:26:06.186Z,16.23
2022-10-24T02:27:07.365Z,16.35
2022-10-24T02:28:07.066Z,16.38
2022-10-24T02:29:07.226Z,16.38
2022-10-24T02:30:07.393Z,16.35
2022-10-24T02:31:09.096Z,16.26
2022-10-24T02:32:09.243Z,16.31
2022-10-24T02:33:08.476Z,16.24
2022-10-24T02:34:08.730Z,16.23
2022-10-24T02:35:08.829Z,16.26
2022-10-24T02:36:09.011Z,16.28
2022-10-24T02:37:09.925Z,16.16
2022-10-24T02:38:09.923Z,16.16
2022-10-24T02:39:10.059Z,16.26
2022-10-24T02:40:10.272Z,16.29
2022-10-24T02:41:11.930Z,16.17
2022-10-24T02:42:10.114Z,16.10
2022-10-24T02:43:09.358Z,16.15
2022-10-24T02:44:11.609Z,16.24
2022-10-24T02:45:09.996Z,16.20
2022-10-24T02:46:10.190Z,16.15
2022-10-24T02:47:11.526Z,16.21
2022-10-24T02:48:10.788Z,16.10
2022-10-24T02:49:12.981Z,16.21
2022-10-24T02:50:11.382Z,16.12
2022-10-24T02:51:11.708Z,16.05
2022-10-24T02:52:14.414Z,16.05
2022-10-24T02:53:14.150Z,16.13
2022-10-24T02:54:14.338Z,15.97
2022-10-24T02:55:14.547Z,16.02
2022-10-24T02:56:14.832Z,16.02
2022-10-24T02:57:14.482Z,16.01
2022-10-24T02:58:15.711Z,16.01
2022-10-24T02:59:15.900Z,16.01
2022-10-24T03:00:16.089Z,16.02
2022-10-24T03:01:16.339Z,15.98
2022-10-24T03:02:15.724Z,15.91
2022-10-24T03:03:17.191Z,15.92
2022-10-24T03:04:15.343Z,15.88
2022-10-24T03:05:17.540Z,15.84
2022-10-24T03:06:15.930Z,15.76
2022-10-24T03:07:17.252Z,15.72
2022-10-24T03:08:16.510Z,15.68
2022-10-24T03:09:18.705Z,15.72
2022-10-24T03:10:18.888Z,15.67
2022-10-24T03:11:18.370Z,15.72
2022-10-24T03:12:20.556Z,15.67
2022-10-24T03:13:19.088Z,15.67
2022-10-24T03:14:18.445Z,15.65
2022-10-24T03:15:20.633Z,15.62
2022-10-24T03:16:19.036Z,15.57
2022-10-24T03:17:22.732Z,15.55
2022-10-24T03:18:19.650Z,15.62
2022-10-24T03:19:19.980Z,15.58
2022-10-24T03:20:22.161Z,15.52
2022-10-24T03:21:22.019Z,15.55
2022-10-24T03:22:21.735Z,15.61
2022-10-24T03:23:22.594Z,15.77
2022-10-24T03:24:31.079Z,15.75
2022-10-24T03:25:22.598Z,15.61
2022-10-24T03:26:25.250Z,15.61
2022-10-24T03:27:24.038Z,15.59
2022-10-24T03:28:22.423Z,15.57
2022-10-24T03:29:22.736Z,15.52
2022-10-24T03:30:23.059Z,15.54
2022-10-24T03:31:24.393Z,15.49
2022-10-24T03:33:25.819Z,15.46
2022-10-24T03:34:24.215Z,15.43
2022-10-24T03:35:25.349Z,15.44
2022-10-24T03:36:24.859Z,15.40
2022-10-24T03:37:28.023Z,15.46
2022-10-24T03:38:25.428Z,15.52
2022-10-24T03:39:28.541Z,15.47
2022-10-24T03:40:25.968Z,15.40
2022-10-24T03:41:26.301Z,15.42
2022-10-24T03:42:29.971Z,15.36
2022-10-24T03:43:26.897Z,15.49
2022-10-24T03:44:27.228Z,15.43
2022-10-24T03:45:27.537Z,15.55
2022-10-24T03:46:27.878Z,15.55
2022-10-24T03:47:31.030Z,15.55
2022-10-24T03:48:28.424Z,15.47
2022-10-24T03:49:28.742Z,15.44
2022-10-24T03:50:29.059Z,15.44
2022-10-24T03:51:31.238Z,15.40
2022-10-24T03:52:32.411Z,15.35
2022-10-24T03:53:29.960Z,15.33
2022-10-24T03:54:30.281Z,15.33
2022-10-24T03:55:30.624Z,15.31
2022-10-24T03:56:30.950Z,15.35
2022-10-24T03:57:34.725Z,15.37
2022-10-24T03:58:31.504Z,15.39
2022-10-24T03:59:31.827Z,15.33
2022-10-24T04:00:32.153Z,15.27
2022-10-24T04:01:34.442Z,15.22
2022-10-24T04:02:35.155Z,15.28
2022-10-24T04:03:36.725Z,15.24
2022-10-24T04:04:34.942Z,15.25
2022-10-24T04:05:35.213Z,15.27
2022-10-24T04:06:36.689Z,15.25
2022-10-24T04:07:36.016Z,15.21
2022-10-24T04:08:37.177Z,15.18
2022-10-24T04:09:36.414Z,15.22
2022-10-24T04:10:36.597Z,15.19
2022-10-24T04:11:37.763Z,15.18
2022-10-24T04:12:37.486Z,15.19
2022-10-24T04:13:39.178Z,15.19
2022-10-24T04:14:37.878Z,15.17
2022-10-24T04:15:37.046Z,15.17
2022-10-24T04:16:36.667Z,15.18
2022-10-24T04:17:36.996Z,15.22
2022-10-24T04:18:40.647Z,15.18
2022-10-24T04:19:37.576Z,15.18
2022-10-24T04:20:37.898Z,15.11
2022-10-24T04:21:38.234Z,15.09
2022-10-24T04:22:38.543Z,15.07
2022-10-24T04:23:42.202Z,15.10
2022-10-24T04:24:39.144Z,15.15
2022-10-24T04:25:39.459Z,15.11
2022-10-24T04:26:39.779Z,15.15
2022-10-24T04:27:41.959Z,15.17
2022-10-24T04:28:43.169Z,15.10
2022-10-24T04:29:40.693Z,15.07
2022-10-24T04:31:43.070Z,15.17
2022-10-24T04:32:43.676Z,15.07
2022-10-24T04:33:44.426Z,15.06
2022-10-24T04:34:43.656Z,14.97
2022-10-24T04:35:44.351Z,15.04
2022-10-24T04:36:44.533Z,15.02
2022-10-24T04:37:44.721Z,14.99
2022-10-24T04:38:45.870Z,14.97
2022-10-24T04:39:43.672Z,14.94
2022-10-24T04:40:47.317Z,14.91
2022-10-24T04:41:46.013Z,14.94
2022-10-24T04:42:46.514Z,15.00
2022-10-24T04:43:46.466Z,15.03
2022-10-24T04:44:45.137Z,15.03
2022-10-24T04:45:48.775Z,15.02
2022-10-24T04:46:50.616Z,15.06
2022-10-24T04:47:46.241Z,15.02
2022-10-24T04:48:47.268Z,15.03
2022-10-24T04:49:48.449Z,14.99
2022-10-24T04:50:47.848Z,15.04
2022-10-24T04:51:47.091Z,15.00
2022-10-24T04:52:48.420Z,15.02
2022-10-24T04:53:48.584Z,14.99
2022-10-24T04:54:49.923Z,15.00
2022-10-24T04:55:49.155Z,15.02
2022-10-24T04:56:50.393Z,15.07
2022-10-24T04:57:48.772Z,15.04
2022-10-24T04:58:52.491Z,14.99
2022-10-24T04:59:49.406Z,15.00
2022-10-24T05:00:51.588Z,15.02
2022-10-24T05:01:50.336Z,15.04
2022-10-24T05:02:56.629Z,15.00
2022-10-24T05:03:50.709Z,15.03
2022-10-24T05:04:54.260Z,15.04
2022-10-24T05:05:52.991Z,15.00
2022-10-24T05:06:51.374Z,14.96
2022-10-24T05:07:51.683Z,14.91
2022-10-24T05:08:54.907Z,14.97
2022-10-24T05:09:52.319Z,14.99
2022-10-24T05:10:54.486Z,14.97
2022-10-24T05:11:54.643Z,15.03
2022-10-24T05:12:54.097Z,15.11
2022-10-24T05:13:54.339Z,15.03
2022-10-24T05:14:53.709Z,15.03
2022-10-24T05:15:55.897Z,14.97
2022-10-24T05:16:54.256Z,14.96
2022-10-24T05:17:56.461Z,15.02
2022-10-24T05:18:55.651Z,15.03
2022-10-24T05:19:55.146Z,15.00
2022-10-24T05:20:57.341Z,14.94
2022-10-24T05:21:55.774Z,14.99
2022-10-24T05:22:56.072Z,15.04
2022-10-24T05:23:59.761Z,15.02
2022-10-24T05:24:56.654Z,15.00
2022-10-24T05:25:58.850Z,15.02
2022-10-24T05:26:58.181Z,15.04
2022-10-24T05:27:57.568Z,15.03
2022-10-24T05:28:58.863Z,15.09
2022-10-24T05:29:59.651Z,15.06
2022-10-24T05:30:58.397Z,14.96
2022-10-24T05:31:58.730Z,15.03
2022-10-24T05:32:59.016Z,15.03
2022-10-24T05:34:00.359Z,14.94
2022-10-24T05:35:01.596Z,14.97
2022-10-24T05:36:01.752Z,14.97
2022-10-24T05:37:00.141Z,15.03
2022-10-24T05:38:00.469Z,15.03
2022-10-24T05:39:03.611Z,15.04
2022-10-24T05:40:02.854Z,15.04
2022-10-24T05:41:01.247Z,15.03
2022-10-24T05:42:03.415Z,15.04
2022-10-24T05:43:01.782Z,15.02
2022-10-24T05:44:05.467Z,15.07
2022-10-24T05:45:02.394Z,15.06
2022-10-24T05:46:04.617Z,15.03
2022-10-24T05:47:03.003Z,15.04
2022-10-24T05:48:05.201Z,15.06
2022-10-24T05:49:06.335Z,15.04
2022-10-24T05:50:03.863Z,15.03
2022-10-24T05:51:06.032Z,15.06
2022-10-24T05:52:07.686Z,15.09
2022-10-24T05:53:06.393Z,15.10
2022-10-24T05:54:06.566Z,15.11
2022-10-24T05:55:08.296Z,15.06
2022-10-24T05:56:07.452Z,15.02
2022-10-24T05:57:08.575Z,15.09
2022-10-24T05:58:06.129Z,15.11
2022-10-24T05:59:07.462Z,15.21
2022-10-24T06:00:08.667Z,15.14
2022-10-24T06:01:08.942Z,15.14
2022-10-24T06:02:07.378Z,15.04
2022-10-24T06:03:07.648Z,15.04
2022-10-24T06:04:12.842Z,15.07
2022-10-24T06:05:09.733Z,15.10
2022-10-24T06:06:10.413Z,15.06
2022-10-24T06:07:08.807Z,15.06
2022-10-24T06:08:10.967Z,15.14
2022-10-24T06:09:11.331Z,15.11
2022-10-24T06:10:11.377Z,15.11
2022-10-24T06:11:11.640Z,15.15
2022-10-24T06:12:11.743Z,15.14
2022-10-24T06:13:12.405Z,15.15
2022-10-24T06:14:13.549Z,15.10
2022-10-24T06:15:12.785Z,15.11
2022-10-24T06:16:12.968Z,15.14
2022-10-24T06:17:11.737Z,15.18
2022-10-24T06:18:13.920Z,15.11
2022-10-24T06:19:15.079Z,15.14
2022-10-24T06:20:14.311Z,15.22
2022-10-24T06:21:12.859Z,15.17
2022-10-24T06:22:13.194Z,15.14
2022-10-24T06:23:13.525Z,15.17
2022-10-24T06:24:15.780Z,15.22
2022-10-24T06:25:15.857Z,15.25
2022-10-24T06:26:14.279Z,15.18
2022-10-24T06:27:16.469Z,15.15
2022-10-24T06:28:14.911Z,15.18
2022-10-24T06:29:18.040Z,15.19
2022-10-24T06:30:17.535Z,15.22
2022-10-24T06:31:15.700Z,15.24
2022-10-24T06:32:17.887Z,15.19
2022-10-24T06:33:16.171Z,15.22
2022-10-24T06:35:16.841Z,15.31
2022-10-24T06:36:19.037Z,15.29
2022-10-24T06:37:19.094Z,15.29
2022-10-24T06:38:19.263Z,15.31
2022-10-24T06:39:18.921Z,15.33
2022-10-24T06:40:20.118Z,15.36
2022-10-24T06:41:21.751Z,15.33
2022-10-24T06:42:20.473Z,15.36
2022-10-24T06:43:20.637Z,15.40
2022-10-24T06:44:21.764Z,15.49
2022-10-24T06:45:21.501Z,15.52
2022-10-24T06:46:21.688Z,15.57
2022-10-24T06:47:22.019Z,15.47
2022-10-24T06:48:22.080Z,15.51
2022-10-24T06:49:22.985Z,15.57
2022-10-24T06:50:22.944Z,15.57
2022-10-24T06:51:23.137Z,15.57
2022-10-24T06:52:23.347Z,15.61
2022-10-24T06:53:24.457Z,15.65
2022-10-24T06:54:25.316Z,15.76
2022-10-24T06:55:22.379Z,15.83
2022-10-24T06:56:22.604Z,15.84
2022-10-24T06:57:24.787Z,15.91
2022-10-24T06:58:23.220Z,15.92
2022-10-24T06:59:23.552Z,15.91
2022-10-24T07:00:23.866Z,15.97
2022-10-24T07:01:24.166Z,16.01
2022-10-24T07:02:24.580Z,15.98
2022-10-24T07:03:28.028Z,16.00
2022-10-24T07:04:24.968Z,16.04
2022-10-24T07:05:25.198Z,16.12
2022-10-24T07:06:27.374Z,16.16
2022-10-24T07:07:25.680Z,16.05
2022-10-24T07:08:26.016Z,16.09
2022-10-24T07:09:26.354Z,16.10
2022-10-24T07:10:26.685Z,16.21
2022-10-24T07:11:30.338Z,16.26
2022-10-24T07:12:29.061Z,16.29
2022-10-24T07:13:27.498Z,16.21
2022-10-24T07:14:29.675Z,16.24
2022-10-24T07:15:27.977Z,16.21
2022-10-24T07:16:30.165Z,16.26
2022-10-24T07:17:28.590Z,16.31
2022-10-24T07:18:29.796Z,16.33
2022-10-24T07:19:33.977Z,16.29
2022-10-24T07:20:33.841Z,16.36
2022-10-24T07:21:29.770Z,16.35
2022-10-24T07:22:32.583Z,16.39
2022-10-24T07:23:30.291Z,16.43
2022-10-24T07:24:32.470Z,16.51
2022-10-24T07:25:34.112Z,16.49
2022-10-24T07:26:31.061Z,16.41
2022-10-24T07:27:31.399Z,16.51
2022-10-24T07:28:31.737Z,16.51
2022-10-24T07:29:31.972Z,16.53
2022-10-24T07:30:34.155Z,16.57
2022-10-24T07:31:32.745Z,16.49
2022-10-24T07:32:32.753Z,16.57
2022-10-24T07:33:34.457Z,16.53
2022-10-24T07:34:35.188Z,16.54
2022-10-24T07:35:33.475Z,16.57
2022-10-24T07:36:33.714Z,16.74
2022-10-24T07:37:33.947Z,16.71
2022-10-24T07:38:34.261Z,16.72
2022-10-24T07:39:36.383Z,16.84
2022-10-24T07:40:34.692Z,16.79
2022-10-24T07:41:36.894Z,16.74
2022-10-24T07:42:35.192Z,16.74
2022-10-24T07:43:36.562Z,16.78
2022-10-24T07:44:37.781Z,16.89
2022-10-24T07:45:36.081Z,16.94
2022-10-24T07:46:38.266Z,16.94
2022-10-24T07:47:38.424Z,17.01
2022-10-24T07:48:39.574Z,17.12
2022-10-24T07:49:38.810Z,17.26
2022-10-24T07:50:37.602Z,17.29
2022-10-24T07:51:39.761Z,17.41
2022-10-24T07:52:39.923Z,17.48
2022-10-24T07:53:41.088Z,17.49
2022-10-24T07:54:38.754Z,17.38
2022-10-24T07:55:38.984Z,17.42
2022-10-24T07:56:39.206Z,17.54
2022-10-24T07:57:39.542Z,17.70
2022-10-24T07:58:43.227Z,17.94
2022-10-24T07:59:42.504Z,18.60
2022-10-24T08:00:45.072Z,19.15
2022-10-24T08:01:41.660Z,19.74
2022-10-24T08:02:42.845Z,19.62
2022-10-24T08:03:42.129Z,19.67
2022-10-24T08:04:41.407Z,19.95
2022-10-24T08:05:43.589Z,19.70
2022-10-24T08:06:41.893Z,19.99
2022-10-24T08:07:48.644Z,19.95
2022-10-24T08:08:43.520Z,19.91
2022-10-24T08:09:42.704Z,19.66
2022-10-24T08:10:44.879Z,19.55
2022-10-24T08:11:45.070Z,19.71
2022-10-24T08:12:45.467Z,19.82
2022-10-24T08:13:46.491Z,19.91
2022-10-24T08:14:45.698Z,20.31
2022-10-24T08:15:46.379Z,20.32
2022-10-24T08:16:46.567Z,19.99
2022-10-24T08:17:46.751Z,20.02
2022-10-24T08:18:47.902Z,20.22
2022-10-24T08:19:47.171Z,20.50
2022-10-24T08:20:47.320Z,20.96
2022-10-24T08:21:48.054Z,20.82
2022-10-24T08:22:48.178Z,20.95
2022-10-24T08:23:49.313Z,20.81
2022-10-24T08:24:48.546Z,20.44
2022-10-24T08:25:49.239Z,20.13
2022-10-24T08:26:49.406Z,19.88
2022-10-24T08:27:49.592Z,20.09
2022-10-24T08:28:49.843Z,20.16
2022-10-24T08:29:48.385Z,20.09
2022-10-24T08:30:50.565Z,20.36
2022-10-24T08:31:50.744Z,20.50
2022-10-24T08:32:50.900Z,20.63
2022-10-24T08:33:52.083Z,20.70
2022-10-24T08:34:49.768Z,20.78
2022-10-24T08:35:50.010Z,20.31
2022-10-24T08:36:50.251Z,20.48
2022-10-24T08:37:50.493Z,20.11
2022-10-24T08:38:54.146Z,20.24
2022-10-24T08:39:50.983Z,20.29
2022-10-24T08:40:51.226Z,20.26
2022-10-24T08:41:51.464Z,20.04
2022-10-24T08:42:51.702Z,20.03
2022-10-24T08:43:53.967Z,20.28
2022-10-24T08:44:54.140Z,19.96
2022-10-24T08:45:54.300Z,20.16
2022-10-24T08:46:52.836Z,20.18
2022-10-24T08:47:55.004Z,20.55
2022-10-24T08:48:55.209Z,20.75
2022-10-24T08:49:55.396Z,20.80
2022-10-24T08:50:55.579Z,21.07
2022-10-24T08:51:56.267Z,20.78
2022-10-24T08:52:54.580Z,21.15
2022-10-24T08:53:56.809Z,20.85
2022-10-24T08:54:56.945Z,20.55
2022-10-24T08:55:57.181Z,20.85
2022-10-24T08:56:57.313Z,20.82
2022-10-24T08:57:57.999Z,21.11
2022-10-24T08:58:57.773Z,20.92
2022-10-24T08:59:58.526Z,20.50
2022-10-24T09:00:58.792Z,20.19
2022-10-24T09:02:01.992Z,20.14
2022-10-24T09:03:00.157Z,20.41
2022-10-24T09:04:00.212Z,20.34
2022-10-24T09:04:59.448Z,20.32
2022-10-24T09:06:00.309Z,19.89
2022-10-24T09:06:58.354Z,19.58
2022-10-24T09:08:00.537Z,19.29
2022-10-24T09:09:00.721Z,19.00
2022-10-24T09:09:59.147Z,19.12
2022-10-24T09:10:59.382Z,18.89
2022-10-24T09:12:01.566Z,19.09
2022-10-24T09:12:59.843Z,19.11
2022-10-24T09:14:00.994Z,19.18
2022-10-24T09:15:02.341Z,19.14
2022-10-24T09:16:00.780Z,19.29
2022-10-24T09:17:01.034Z,19.22
2022-10-24T09:18:03.194Z,19.04
2022-10-24T09:19:02.307Z,18.88
2022-10-24T09:20:04.216Z,18.99
2022-10-24T09:21:02.034Z,19.22
2022-10-24T09:22:04.229Z,19.18
2022-10-24T09:23:02.536Z,19.29
2022-10-24T09:24:04.697Z,18.96
2022-10-24T09:25:05.827Z,19.02
2022-10-24T09:26:03.406Z,18.98
2022-10-24T09:27:05.573Z,19.04
2022-10-24T09:28:03.895Z,19.27
2022-10-24T09:29:06.089Z,19.22
2022-10-24T09:30:07.254Z,19.29
2022-10-24T09:31:04.695Z,19.29
2022-10-24T09:32:06.889Z,18.98
2022-10-24T09:33:05.198Z,18.93
2022-10-24T09:34:05.423Z,18.77
2022-10-24T09:35:07.686Z,18.81
2022-10-24T09:36:05.992Z,18.80
2022-10-24T09:37:08.251Z,18.77
2022-10-24T09:38:06.527Z,18.77
2022-10-24T09:39:06.757Z,18.84
2022-10-24T09:40:09.926Z,18.93
2022-10-24T09:41:07.246Z,18.95
2022-10-24T09:42:07.481Z,19.08
2022-10-24T09:43:09.673Z,18.92
2022-10-24T09:44:07.972Z,18.77
2022-10-24T09:45:08.274Z,18.90
2022-10-24T09:46:08.500Z,18.93
2022-10-24T09:47:10.808Z,19.00
2022-10-24T09:48:10.908Z,19.08
2022-10-24T09:49:09.336Z,19.00
2022-10-24T09:50:10.705Z,18.90
2022-10-24T09:51:09.996Z,18.99
2022-10-24T09:52:10.230Z,18.98
2022-10-24T09:53:12.398Z,18.78
2022-10-24T09:54:12.601Z,18.80
2022-10-24T09:55:12.940Z,18.95
2022-10-24T09:56:11.373Z,18.98
2022-10-24T09:57:11.639Z,19.02
2022-10-24T09:58:11.844Z,18.75
2022-10-24T09:59:14.025Z,18.93
2022-10-24T10:00:13.366Z,18.99
2022-10-24T10:01:13.727Z,18.84
2022-10-24T10:02:13.100Z,19.02
2022-10-24T10:03:13.342Z,18.96
2022-10-24T10:04:17.206Z,18.80
2022-10-24T10:05:15.802Z,18.95
2022-10-24T10:06:14.126Z,18.93
2022-10-24T10:07:14.384Z,19.08
2022-10-24T10:08:16.564Z,19.16
2022-10-24T10:09:14.917Z,19.09
2022-10-24T10:10:18.658Z,19.16
2022-10-24T10:11:15.543Z,18.95
2022-10-24T10:12:17.746Z,18.96
2022-10-24T10:13:17.957Z,18.74
2022-10-24T10:14:18.147Z,18.95
2022-10-24T10:15:19.402Z,18.90
2022-10-24T10:16:17.071Z,19.02
2022-10-24T10:17:17.213Z,18.99
2022-10-24T10:18:19.419Z,18.95
2022-10-24T10:19:17.743Z,18.80
2022-10-24T10:20:19.657Z,18.90
2022-10-24T10:21:18.266Z,18.93
2022-10-24T10:22:20.416Z,18.96
2022-10-24T10:23:20.780Z,18.99
2022-10-24T10:24:18.997Z,18.81
2022-10-24T10:25:22.188Z,18.81
2022-10-24T10:26:21.416Z,18.96
2022-10-24T10:27:19.765Z,18.75
2022-10-24T10:28:20.050Z,18.86
2022-10-24T10:29:22.253Z,18.90
2022-10-24T10:30:23.926Z,18.80
2022-10-24T10:31:22.697Z,18.88
2022-10-24T10:32:22.885Z,18.81
2022-10-24T10:33:23.045Z,18.63
2022-10-24T10:34:24.110Z,18.73
2022-10-24T10:35:23.969Z,18.84
2022-10-24T10:36:24.124Z,18.78
2022-10-24T10:37:25.289Z,18.88
2022-10-24T10:38:24.516Z,19.04
2022-10-24T10:39:24.698Z,19.16
2022-10-24T10:40:25.387Z,19.07
2022-10-24T10:41:25.571Z,18.96
2022-10-24T10:42:25.829Z,18.99
2022-10-24T10:43:25.964Z,19.07
2022-10-24T10:44:26.140Z,19.12
2022-10-24T10:45:26.825Z,19.16
2022-10-24T10:46:25.127Z,19.02
2022-10-24T10:47:27.524Z,18.88
2022-10-24T10:48:25.600Z,18.98
2022-10-24T10:49:27.780Z,18.92
2022-10-24T10:50:27.117Z,18.99
2022-10-24T10:51:28.280Z,19.02
2022-10-24T10:52:29.312Z,18.99
2022-10-24T10:53:28.548Z,18.88
2022-10-24T10:54:29.206Z,18.84
2022-10-24T10:55:29.367Z,18.98
2022-10-24T10:56:29.555Z,18.96
2022-10-24T10:57:31.209Z,18.81
2022-10-24T10:58:29.959Z,18.71
2022-10-24T10:59:30.618Z,18.92
2022-10-24T11:00:30.778Z,18.84
2022-10-24T11:01:31.049Z,18.84
2022-10-24T11:02:29.724Z,18.77
2022-10-24T11:03:31.808Z,18.92
2022-10-24T11:04:31.998Z,19.00
2022-10-24T11:05:32.194Z,19.15
2022-10-24T11:06:32.369Z,19.09
2022-10-24T11:07:32.054Z,19.11
2022-10-24T11:08:33.237Z,19.22
2022-10-24T11:09:33.427Z,19.14
2022-10-24T11:10:31.980Z,19.30
2022-10-24T11:11:34.161Z,19.30
2022-10-24T11:12:33.452Z,19.36
2022-10-24T11:13:34.271Z,19.45
2022-10-24T11:14:34.922Z,19.31
2022-10-24T11:15:33.359Z,19.33
2022-10-24T11:16:33.601Z,19.30
2022-10-24T11:17:34.838Z,19.22
2022-10-24T11:18:35.452Z,19.51
2022-10-24T11:19:36.312Z,20.04
2022-10-24T11:20:34.623Z,20.87
2022-10-24T11:21:34.865Z,21.07
2022-10-24T11:22:36.605Z,21.36
2022-10-24T11:23:37.415Z,21.46
2022-10-24T11:24:35.663Z,21.62
2022-10-24T11:25:37.861Z,21.69
2022-10-24T11:26:36.173Z,21.64
2022-10-24T11:27:39.846Z,21.09
2022-10-24T11:28:36.692Z,20.90
2022-10-24T11:29:40.335Z,20.99
2022-10-24T11:30:41.567Z,20.75
2022-10-24T11:31:40.482Z,20.67
2022-10-24T11:32:39.717Z,20.65
2022-10-24T11:33:39.762Z,20.82
2022-10-24T11:34:39.958Z,21.07
2022-10-24T11:35:40.127Z,20.75
2022-10-24T11:36:38.835Z,20.28
2022-10-24T11:37:41.968Z,19.88
2022-10-24T11:38:39.393Z,19.71
2022-10-24T11:39:39.645Z,19.40
2022-10-24T11:40:41.829Z,19.39
2022-10-24T11:41:40.174Z,19.24
2022-10-24T11:42:40.607Z,19.07
2022-10-24T11:43:40.746Z,19.09
2022-10-24T11:44:40.987Z,19.08
2022-10-24T11:45:43.182Z,18.89
2022-10-24T11:46:41.471Z,18.93
2022-10-24T11:47:41.816Z,18.93
2022-10-24T11:48:42.089Z,18.71
2022-10-24T11:49:44.243Z,18.96
2022-10-24T11:50:44.432Z,19.26
2022-10-24T11:51:42.851Z,18.98
2022-10-24T11:52:43.366Z,18.68
2022-10-24T11:53:43.422Z,18.66
2022-10-24T11:54:45.594Z,18.71
2022-10-24T11:55:43.897Z,18.65
2022-10-24T11:56:45.183Z,18.75
2022-10-24T11:57:44.786Z,18.66
2022-10-24T11:58:45.668Z,18.75
2022-10-24T11:59:47.023Z,18.78
2022-10-24T12:00:48.254Z,18.84
2022-10-24T12:01:46.595Z,18.83
2022-10-24T12:02:46.843Z,18.70
2022-10-24T12:03:47.056Z,18.89
2022-10-24T12:04:48.231Z,18.83
2022-10-24T12:05:48.421Z,18.66
2022-10-24T12:06:46.966Z,18.49
2022-10-24T12:07:47.788Z,18.43
2022-10-24T12:08:47.599Z,18.49
2022-10-24T12:09:49.787Z,18.44
2022-10-24T12:10:49.963Z,18.44
2022-10-24T12:11:48.434Z,18.56
2022-10-24T12:12:50.598Z,18.71
2022-10-24T12:13:49.033Z,18.84
2022-10-24T12:14:49.271Z,18.92
2022-10-24T12:15:51.457Z,19.08
2022-10-24T12:16:49.763Z,18.89
2022-10-24T12:17:52.045Z,19.07
2022-10-24T12:18:50.495Z,18.95
2022-10-24T12:19:50.681Z,18.93
2022-10-24T12:20:50.907Z,18.88
2022-10-24T12:21:52.302Z,18.84
2022-10-24T12:22:53.984Z,18.63
2022-10-24T12:23:53.719Z,18.49
2022-10-24T12:24:53.956Z,18.29
2022-10-24T12:25:52.279Z,18.22
2022-10-24T12:26:52.516Z,17.95
2022-10-24T12:27:52.811Z,17.64
2022-10-24T12:28:53.048Z,17.68
2022-10-24T12:29:54.211Z,17.65
2022-10-24T12:31:55.723Z,17.71
2022-10-24T12:32:56.896Z,17.82
2022-10-24T12:33:56.132Z,17.82
2022-10-24T12:34:58.388Z,17.90
2022-10-24T12:35:56.086Z,17.86
2022-10-24T12:36:57.120Z,18.03
2022-10-24T12:37:58.243Z,17.87
2022-10-24T12:38:57.472Z,18.01
2022-10-24T12:39:58.509Z,17.85
2022-10-24T12:40:59.814Z,18.00
2022-10-24T12:41:58.552Z,18.01
2022-10-24T12:42:59.685Z,17.97
2022-10-24T12:43:58.924Z,17.87
2022-10-24T12:44:59.115Z,17.65
2022-10-24T12:45:59.302Z,17.38
2022-10-24T12:46:59.970Z,17.27
2022-10-24T12:47:59.400Z,17.12
2022-10-24T12:49:00.585Z,17.08
2022-10-24T12:49:59.025Z,16.99
2022-10-24T12:51:00.206Z,17.06
2022-10-24T12:51:59.495Z,17.14
2022-10-24T12:53:00.697Z,17.16
2022-10-24T12:53:59.989Z,17.26
2022-10-24T12:55:02.157Z,17.14
2022-10-24T12:56:00.452Z,17.20
2022-10-24T12:57:02.624Z,17.22
2022-10-24T12:58:01.764Z,17.09
2022-10-24T12:59:01.177Z,16.96
2022-10-24T13:00:01.418Z,16.84
2022-10-24T13:01:03.629Z,16.89
2022-10-24T13:02:03.993Z,16.89